Terminal Aerodrome Forecast
Issued by NWS

Home | Current Version | Previous Version | Text Only | Print | Product List | Glossary On
Versions: 1 2 3 4 5 6 7 8 9 10 11 12 13 14 15 16 17 18
000
FTUS41 KGYX 011400 AAB
TAFLEB
TAF AMD
KLEB 011402Z 0114/0212 VRB03KT P6SM BKN006
     FM011500 20007KT P6SM FEW006 SCT060
     FM020000 00000KT P6SM SCT120 BKN200=

USA.gov is the U.S. government's official web portal to all federal, state and local government web resources and services.